Time;durP1;ratioP1;P1;durP2;ratioP2;P2;SDS_P1;SDS_P2;PMS_P1;PMS_P2;Temp;Humidity;BMP_temperature;BMP_pressure;BME280_temperature;BME280_humidity;BME280_pressure;Samples;Min_cycle;Max_cycle;Signal;HPM_P1;HPM_P2
2022/12/30 00:01:33;;;;;;;7.55;1.90;;;6.10;99.90;;;;;;5028849;28;20036;-86
2022/12/30 00:03:59;;;;;;;8.70;2.15;;;6.10;99.90;;;;;;5031373;28;20112;-86
2022/12/30 00:06:27;;;;;;;9.13;1.60;;;6.10;99.90;;;;;;5026262;28;20043;-86
2022/12/30 00:08:56;;;;;;;9.90;1.73;;;6.10;99.90;;;;;;5044481;28;20028;-86
2022/12/30 00:11:44;;;;;;;8.38;1.83;;;6.00;99.90;;;;;;5024473;28;20090;-86
2022/12/30 00:35:08;;;;;;;8.57;1.98;;;6.00;99.90;;;;;;5054345;28;20506;-86
2022/12/30 00:56:14;;;;;;;5.30;1.75;;;5.70;99.90;;;;;;5061081;28;20044;-86
2022/12/30 00:58:40;;;;;;;4.60;1.77;;;5.70;99.90;;;;;;5054291;28;20030;-86
2022/12/30 01:01:05;;;;;;;7.72;2.28;;;5.60;99.90;;;;;;5061491;28;20056;-85
2022/12/30 01:03:46;;;;;;;9.52;1.90;;;5.60;99.90;;;;;;5075849;28;20036;-85
2022/12/30 01:06:11;;;;;;;5.88;1.45;;;5.70;99.90;;;;;;5075458;28;20024;-85
2022/12/30 01:08:38;;;;;;;8.27;1.70;;;5.70;99.90;;;;;;5075796;28;20359;-85
2022/12/30 01:11:08;;;;;;;7.47;1.45;;;5.70;99.90;;;;;;5066927;28;20024;-85
2022/12/30 01:13:35;;;;;;;8.40;1.73;;;5.60;99.90;;;;;;5068546;28;20025;-85
2022/12/30 01:16:09;;;;;;;8.45;1.60;;;5.60;99.90;;;;;;5087016;28;20333;-86
2022/12/30 01:18:36;;;;;;;10.45;1.88;;;5.60;99.90;;;;;;5055177;28;20047;-86
2022/12/30 01:21:06;;;;;;;9.63;1.60;;;5.70;99.90;;;;;;5063936;28;20029;-85
2022/12/30 01:23:32;;;;;;;10.40;2.10;;;5.60;99.90;;;;;;5088879;28;20038;-85
2022/12/30 01:26:05;;;;;;;10.73;2.08;;;5.70;99.90;;;;;;5075586;28;20063;-85
2022/12/30 01:28:34;;;;;;;11.77;2.00;;;5.70;99.90;;;;;;5058010;28;20372;-85
2022/12/30 01:31:03;;;;;;;11.73;2.35;;;5.70;99.90;;;;;;5039270;28;20039;-85
2022/12/30 01:33:28;;;;;;;10.57;1.75;;;5.70;99.90;;;;;;5073012;28;20067;-85
2022/12/30 01:35:57;;;;;;;13.00;1.50;;;5.70;99.90;;;;;;5067876;28;20024;-85
2022/12/30 01:38:32;;;;;;;7.97;2.00;;;5.70;99.90;;;;;;5050550;28;20032;-85
2022/12/30 01:40:59;;;;;;;6.53;1.60;;;5.70;99.90;;;;;;5077389;28;20037;-85
2022/12/30 01:43:41;;;;;;;7.03;2.40;;;5.70;99.90;;;;;;5064796;28;20360;-85
2022/12/30 01:46:07;;;;;;;6.90;1.60;;;5.70;99.90;;;;;;5077437;28;20035;-85
2022/12/30 01:48:34;;;;;;;8.23;1.88;;;5.70;99.90;;;;;;5059223;28;20027;-86
2022/12/30 01:51:14;;;;;;;7.57;1.70;;;5.70;99.90;;;;;;5059026;28;20024;-85
2022/12/30 01:53:44;;;;;;;5.95;1.30;;;5.70;99.90;;;;;;5077207;28;20032;-85
2022/12/30 01:56:16;;;;;;;6.22;1.40;;;5.60;99.90;;;;;;5076815;28;20170;-86
2022/12/30 01:59:23;;;;;;;10.55;2.50;;;5.70;99.90;;;;;;5059041;28;20028;-85
2022/12/30 02:01:49;;;;;;;6.22;1.58;;;5.60;99.90;;;;;;4975797;28;20039;-85
2022/12/30 02:04:18;;;;;;;5.25;1.20;;;5.50;99.90;;;;;;4959559;28;20042;-85
2022/12/30 02:07:18;;;;;;;5.38;1.13;;;5.50;99.90;;;;;;5009853;28;20032;-85
2022/12/30 02:09:46;;;;;;;5.97;1.40;;;5.40;99.90;;;;;;5076570;28;20028;-85
2022/12/30 02:12:12;;;;;;;4.35;1.77;;;5.40;99.90;;;;;;5058647;28;20031;-85
2022/12/30 02:14:40;;;;;;;6.13;1.40;;;5.30;99.90;;;;;;5058358;28;20024;-85
2022/12/30 02:17:12;;;;;;;8.55;1.52;;;5.30;99.90;;;;;;5058654;28;20036;-86
2022/12/30 02:20:19;;;;;;;5.90;1.30;;;5.30;99.90;;;;;;5058553;28;20028;-85
2022/12/30 02:22:51;;;;;;;9.15;1.92;;;5.20;99.90;;;;;;5044086;28;20038;-87
2022/12/30 02:25:53;;;;;;;6.45;1.60;;;5.20;99.90;;;;;;5076016;28;20028;-85
2022/12/30 02:28:56;;;;;;;7.88;1.65;;;5.10;99.90;;;;;;5076227;28;20028;-85
2022/12/30 02:31:32;;;;;;;6.45;1.48;;;5.10;99.90;;;;;;5076216;28;20042;-84
2022/12/30 02:34:20;;;;;;;6.22;1.35;;;5.10;99.90;;;;;;5058667;28;20112;-85
2022/12/30 02:37:11;;;;;;;11.32;2.10;;;5.10;99.90;;;;;;5058187;28;20029;-85
2022/12/30 02:40:05;;;;;;;4.93;1.40;;;5.10;99.90;;;;;;5058517;28;20024;-85
2022/12/30 02:45:30;;;;;;;6.95;1.38;;;5.10;99.90;;;;;;5076170;28;20047;-85
2022/12/30 02:53:49;;;;;;;8.05;1.95;;;5.10;99.90;;;;;;5076280;28;20126;-85
2022/12/30 02:56:17;;;;;;;11.32;2.17;;;5.10;99.90;;;;;;5047481;28;20049;-85
2022/12/30 02:58:49;;;;;;;9.52;2.17;;;5.10;99.90;;;;;;5037852;28;20040;-85
2022/12/30 03:04:27;;;;;;;9.70;2.17;;;5.10;99.90;;;;;;5055769;28;20504;-85
2022/12/30 03:07:02;;;;;;;9.40;2.60;;;5.10;99.90;;;;;;5037810;28;20025;-85
2022/12/30 03:13:09;;;;;;;7.97;1.77;;;5.10;99.90;;;;;;5055706;28;20490;-85
2022/12/30 03:15:43;;;;;;;8.90;2.08;;;5.10;99.90;;;;;;5037844;28;20036;-85
2022/12/30 03:18:10;;;;;;;10.38;2.13;;;5.10;99.90;;;;;;5037747;28;20040;-86
2022/12/30 03:20:38;;;;;;;10.02;1.92;;;5.20;99.90;;;;;;5037592;28;20070;-85
2022/12/30 03:28:36;;;;;;;9.27;2.13;;;5.20;99.90;;;;;;5055363;28;20476;-85
2022/12/30 03:31:11;;;;;;;11.93;3.05;;;5.20;99.90;;;;;;5037151;28;20062;-85
2022/12/30 03:33:38;;;;;;;14.65;2.30;;;5.30;99.90;;;;;;5037309;28;20033;-85
2022/12/30 03:36:16;;;;;;;14.05;2.60;;;5.20;99.90;;;;;;5037246;28;20028;-85
2022/12/30 03:38:49;;;;;;;10.00;2.58;;;5.30;99.90;;;;;;5055196;28;20033;-85
2022/12/30 03:41:16;;;;;;;8.63;2.83;;;5.30;99.90;;;;;;5054991;28;20021;-85
2022/12/30 03:43:43;;;;;;;16.35;2.83;;;5.20;99.90;;;;;;5037004;28;20037;-85
2022/12/30 03:46:11;;;;;;;10.57;2.40;;;5.20;99.90;;;;;;5037213;28;20116;-85
2022/12/30 03:48:36;;;;;;;9.25;2.10;;;5.20;99.90;;;;;;5055387;28;20025;-85
2022/12/30 03:51:02;;;;;;;11.02;2.30;;;5.20;99.90;;;;;;5037055;28;20024;-86
2022/12/30 03:53:31;;;;;;;15.00;2.45;;;5.20;99.90;;;;;;5054620;28;20049;-85
2022/12/30 03:55:56;;;;;;;12.43;2.47;;;5.20;99.90;;;;;;5043585;28;20048;-84
2022/12/30 03:58:22;;;;;;;6.53;1.75;;;5.20;99.90;;;;;;5057183;28;20036;-85
2022/12/30 04:00:50;;;;;;;13.15;2.17;;;5.10;99.90;;;;;;5056711;28;20024;-85
2022/12/30 04:03:16;;;;;;;14.00;2.38;;;5.10;99.90;;;;;;5074255;28;20041;-85
2022/12/30 04:05:43;;;;;;;9.70;2.25;;;5.10;99.90;;;;;;5057030;28;20365;-84
2022/12/30 04:08:08;;;;;;;11.25;2.63;;;5.10;99.90;;;;;;5074862;28;20124;-85
2022/12/30 04:13:57;;;;;;;18.75;2.92;;;5.10;99.90;;;;;;5074584;28;20178;-85
2022/12/30 04:16:23;;;;;;;16.00;4.07;;;5.10;99.90;;;;;;5056797;28;20073;-85
2022/12/30 04:18:50;;;;;;;9.23;2.22;;;5.10;99.90;;;;;;5055945;28;20051;-84
2022/12/30 04:21:16;;;;;;;15.18;2.42;;;5.10;99.90;;;;;;5055703;28;20037;-84
2022/12/30 04:23:52;;;;;;;11.10;2.45;;;5.10;99.90;;;;;;5056686;28;20043;-84
2022/12/30 04:26:17;;;;;;;11.07;2.08;;;5.10;99.90;;;;;;5056507;28;20056;-85
2022/12/30 04:28:49;;;;;;;10.95;2.80;;;5.00;99.90;;;;;;5039347;28;20553;-85
2022/12/30 04:31:15;;;;;;;14.18;2.42;;;5.00;99.90;;;;;;5056069;28;20024;-85
2022/12/30 04:33:40;;;;;;;12.32;2.30;;;5.00;99.90;;;;;;5073921;28;20456;-84
2022/12/30 04:36:06;;;;;;;11.43;2.63;;;5.00;99.90;;;;;;5055988;28;20036;-85
2022/12/30 04:38:35;;;;;;;14.15;3.10;;;4.90;99.90;;;;;;5073839;28;20024;-84
2022/12/30 04:41:01;;;;;;;12.38;2.60;;;4.90;99.90;;;;;;5074583;28;20032;-84
2022/12/30 04:43:42;;;;;;;10.50;2.40;;;4.90;99.90;;;;;;5074114;28;20040;-85
2022/12/30 04:46:07;;;;;;;12.73;2.38;;;4.90;99.90;;;;;;5055803;28;20384;-84
2022/12/30 04:48:44;;;;;;;16.98;2.90;;;4.90;99.90;;;;;;5055876;28;20078;-85
2022/12/30 04:51:12;;;;;;;13.05;2.28;;;4.90;99.90;;;;;;5073389;28;20044;-86
2022/12/30 04:53:38;;;;;;;15.13;3.05;;;4.90;99.90;;;;;;5073558;28;20032;-85
2022/12/30 04:56:07;;;;;;;15.20;3.75;;;4.90;99.90;;;;;;5055385;28;20051;-84
2022/12/30 04:58:32;;;;;;;14.98;2.33;;;4.90;99.90;;;;;;5055687;28;20052;-84
2022/12/30 05:00:58;;;;;;;16.05;2.42;;;4.90;99.90;;;;;;5055349;28;20491;-84
2022/12/30 05:03:25;;;;;;;10.52;2.40;;;4.90;99.90;;;;;;5056312;28;20060;-84
2022/12/30 05:05:50;;;;;;;13.18;2.50;;;4.90;99.90;;;;;;5072917;28;20108;-84
2022/12/30 05:08:16;;;;;;;14.43;1.80;;;4.90;99.90;;;;;;5073412;28;20087;-84
2022/12/30 05:11:04;;;;;;;12.43;2.58;;;4.90;99.90;;;;;;5073415;28;20109;-85
2022/12/30 05:13:30;;;;;;;14.15;3.95;;;4.80;99.90;;;;;;5056076;28;20111;-84
2022/12/30 05:15:55;;;;;;;12.70;2.95;;;4.90;99.90;;;;;;5073650;28;20174;-84
2022/12/30 05:18:39;;;;;;;11.52;2.20;;;4.90;99.90;;;;;;5054959;28;20032;-84
2022/12/30 05:21:05;;;;;;;13.93;2.78;;;4.90;99.90;;;;;;5055647;28;20043;-85
2022/12/30 05:26:30;;;;;;;11.38;2.95;;;4.90;99.90;;;;;;5073723;28;20040;-84
2022/12/30 05:28:56;;;;;;;11.93;4.10;;;4.90;99.90;;;;;;5073441;28;20382;-84
2022/12/30 05:31:28;;;;;;;9.93;2.20;;;4.90;99.90;;;;;;5073275;28;20033;-84
2022/12/30 05:33:54;;;;;;;13.05;2.25;;;4.90;99.90;;;;;;5038546;28;20032;-84
2022/12/30 05:36:20;;;;;;;18.08;3.35;;;4.80;99.90;;;;;;5055400;28;20448;-84
2022/12/30 05:38:46;;;;;;;13.45;2.58;;;4.80;99.90;;;;;;5055100;28;20033;-84
2022/12/30 05:41:48;;;;;;;12.57;2.55;;;4.90;99.90;;;;;;5040125;28;20101;-85
2022/12/30 05:44:14;;;;;;;13.30;2.42;;;4.90;99.90;;;;;;5054270;28;20472;-84
2022/12/30 05:46:40;;;;;;;11.52;3.22;;;4.80;99.90;;;;;;5072985;28;20025;-85
2022/12/30 05:49:05;;;;;;;10.68;3.22;;;4.90;99.90;;;;;;5055232;28;20029;-84
2022/12/30 05:51:37;;;;;;;12.02;2.80;;;4.90;99.90;;;;;;5054982;28;20039;-83
2022/12/30 05:54:03;;;;;;;15.10;2.60;;;4.90;99.90;;;;;;5054736;28;20028;-84
2022/12/30 05:56:28;;;;;;;17.60;3.00;;;4.90;99.90;;;;;;5054471;28;20102;-84
2022/12/30 05:59:04;;;;;;;13.23;2.42;;;4.90;99.90;;;;;;5055354;28;20041;-84
2022/12/30 06:01:30;;;;;;;15.63;2.45;;;4.90;99.90;;;;;;5055302;28;20033;-84
2022/12/30 06:04:10;;;;;;;24.00;3.80;;;4.90;99.90;;;;;;5072996;28;20102;-85
2022/12/30 06:06:35;;;;;;;15.40;3.15;;;4.90;99.90;;;;;;5054770;28;20029;-85
2022/12/30 06:09:04;;;;;;;18.40;2.90;;;4.90;99.90;;;;;;5054993;28;20082;-84
2022/12/30 06:11:33;;;;;;;12.70;2.53;;;5.00;99.90;;;;;;5054747;28;20119;-84
2022/12/30 06:14:04;;;;;;;11.82;2.85;;;5.00;99.90;;;;;;5072463;28;20037;-84
2022/12/30 06:16:34;;;;;;;10.55;2.75;;;5.10;99.90;;;;;;5072993;28;20025;-85
2022/12/30 06:18:59;;;;;;;15.18;2.58;;;5.10;99.90;;;;;;5057507;28;20028;-84
2022/12/30 06:21:25;;;;;;;10.95;2.42;;;5.10;99.90;;;;;;5075927;28;20036;-83
2022/12/30 06:23:51;;;;;;;16.10;2.95;;;5.10;99.90;;;;;;5058304;28;20401;-84
2022/12/30 06:26:16;;;;;;;18.33;3.47;;;5.10;99.90;;;;;;5058500;28;20071;-84
2022/12/30 06:28:42;;;;;;;11.82;2.55;;;5.10;99.90;;;;;;5076406;28;20033;-84
2022/12/30 06:31:11;;;;;;;11.85;2.53;;;5.10;99.90;;;;;;5076460;28;20349;-84
2022/12/30 06:33:37;;;;;;;14.23;2.55;;;5.10;99.90;;;;;;5076456;28;20051;-84
2022/12/30 06:36:03;;;;;;;13.30;2.70;;;5.10;99.90;;;;;;5058430;28;20028;-83
2022/12/30 06:38:28;;;;;;;13.13;3.10;;;5.10;99.90;;;;;;5057643;28;20119;-84
2022/12/30 06:40:54;;;;;;;13.45;3.50;;;5.10;99.90;;;;;;5058244;28;20029;-84
2022/12/30 06:43:23;;;;;;;18.85;3.58;;;5.00;99.90;;;;;;5075911;28;20461;-84
2022/12/30 06:45:48;;;;;;;11.90;2.53;;;5.00;99.90;;;;;;5075451;28;20032;-83
2022/12/30 06:48:15;;;;;;;15.80;2.40;;;5.00;99.90;;;;;;5075683;28;20035;-85
2022/12/30 06:50:43;;;;;;;13.43;2.72;;;5.00;99.90;;;;;;5057660;28;20469;-84
2022/12/30 06:53:08;;;;;;;11.30;2.90;;;5.00;99.90;;;;;;5075918;28;20484;-84
2022/12/30 06:55:34;;;;;;;13.70;2.80;;;5.00;99.90;;;;;;5075960;28;20056;-83
2022/12/30 06:58:06;;;;;;;15.23;2.75;;;5.00;99.90;;;;;;5075872;28;20050;-85
2022/12/30 07:00:34;;;;;;;16.17;3.00;;;5.00;99.90;;;;;;5057881;28;20027;-84
2022/12/30 07:03:11;;;;;;;12.25;3.00;;;5.00;99.90;;;;;;5057859;28;20032;-84
2022/12/30 07:05:36;;;;;;;14.77;3.03;;;5.00;99.90;;;;;;5057865;28;20032;-85
2022/12/30 07:08:02;;;;;;;20.33;3.42;;;5.00;99.90;;;;;;5075736;28;20024;-85
2022/12/30 07:10:34;;;;;;;16.15;3.15;;;5.00;99.90;;;;;;5057897;28;20024;-84
2022/12/30 07:13:00;;;;;;;13.95;4.20;;;5.00;99.90;;;;;;5074744;28;20123;-84
2022/12/30 07:15:26;;;;;;;15.25;3.63;;;5.10;99.90;;;;;;5075314;28;20508;-84
2022/12/30 07:17:52;;;;;;;11.57;3.03;;;5.00;99.90;;;;;;5057263;28;20060;-84
2022/12/30 07:20:17;;;;;;;19.88;3.78;;;5.00;99.90;;;;;;5057109;28;20025;-84
2022/12/30 07:22:47;;;;;;;12.00;4.07;;;5.00;99.90;;;;;;5057135;28;20138;-84
2022/12/30 07:25:13;;;;;;;11.20;2.72;;;5.00;99.90;;;;;;5040766;28;20379;-84
2022/12/30 07:27:39;;;;;;;12.20;2.85;;;5.00;99.90;;;;;;5074936;28;20107;-86
2022/12/30 07:30:05;;;;;;;8.60;2.35;;;5.00;99.90;;;;;;5074995;28;20039;-84
2022/12/30 07:32:31;;;;;;;15.55;3.00;;;5.00;99.90;;;;;;5075207;28;20032;-84
2022/12/30 07:34:57;;;;;;;18.27;4.05;;;5.00;99.90;;;;;;5074741;28;20025;-85
2022/12/30 07:37:23;;;;;;;11.18;3.35;;;5.10;99.90;;;;;;5074930;28;20491;-84
2022/12/30 07:39:48;;;;;;;12.23;2.60;;;5.10;99.90;;;;;;5056937;28;20088;-84
2022/12/30 07:42:14;;;;;;;14.60;3.97;;;5.10;99.90;;;;;;5074446;28;20024;-85
2022/12/30 07:44:41;;;;;;;10.55;3.10;;;5.10;99.90;;;;;;5056738;28;20028;-85
2022/12/30 07:47:06;;;;;;;13.52;4.85;;;5.20;99.90;;;;;;5074947;28;20104;-84
2022/12/30 07:49:32;;;;;;;16.58;3.63;;;5.20;99.90;;;;;;5074527;28;20028;-84
2022/12/30 07:51:58;;;;;;;11.55;3.67;;;5.20;99.90;;;;;;5056772;28;20032;-84
2022/12/30 07:54:28;;;;;;;14.50;2.70;;;5.30;99.90;;;;;;5074355;28;20033;-84
2022/12/30 07:56:53;;;;;;;12.23;2.78;;;5.30;99.90;;;;;;5045967;28;20037;-83
2022/12/30 07:59:19;;;;;;;13.35;3.38;;;5.30;99.90;;;;;;5036716;28;20036;-84
2022/12/30 08:01:45;;;;;;;11.38;3.22;;;5.30;99.90;;;;;;5036458;28;20376;-84
2022/12/30 08:04:11;;;;;;;15.88;3.10;;;5.40;99.90;;;;;;5036360;28;20044;-84
2022/12/30 08:06:36;;;;;;;14.68;3.38;;;5.40;99.90;;;;;;5036361;28;20124;-85
2022/12/30 08:09:05;;;;;;;14.05;3.15;;;5.50;99.90;;;;;;5036264;28;20120;-84
2022/12/30 08:11:32;;;;;;;12.35;3.15;;;5.50;99.90;;;;;;5037549;28;20411;-84
2022/12/30 08:13:58;;;;;;;17.23;3.28;;;5.50;99.90;;;;;;5035984;28;20132;-84
2022/12/30 08:16:30;;;;;;;12.95;3.00;;;5.50;99.90;;;;;;5036549;28;20025;-84
2022/12/30 08:18:56;;;;;;;14.40;3.22;;;5.60;99.90;;;;;;5035929;28;20452;-84
2022/12/30 08:21:22;;;;;;;15.13;3.00;;;5.60;99.90;;;;;;5035906;28;20021;-84
2022/12/30 08:23:48;;;;;;;13.80;3.05;;;5.70;99.90;;;;;;5053671;28;20064;-84
2022/12/30 08:26:20;;;;;;;12.85;2.80;;;5.70;99.90;;;;;;5035856;28;20071;-85
2022/12/30 08:28:48;;;;;;;11.18;2.75;;;5.70;99.90;;;;;;5035560;28;20461;-84
2022/12/30 08:31:20;;;;;;;10.98;2.83;;;5.80;99.90;;;;;;5034854;28;20461;-86
2022/12/30 08:33:46;;;;;;;13.13;2.80;;;5.80;99.90;;;;;;5035495;28;20040;-85
2022/12/30 08:36:15;;;;;;;11.50;2.60;;;5.80;99.90;;;;;;5039606;28;20588;-83
2022/12/30 08:38:54;;;;;;;13.30;2.83;;;5.90;99.90;;;;;;5054444;28;20025;-85
2022/12/30 08:41:28;;;;;;;9.90;2.83;;;5.90;99.90;;;;;;5035633;28;20017;-85
2022/12/30 08:43:56;;;;;;;8.00;2.80;;;6.00;99.90;;;;;;5053478;28;20039;-85
2022/12/30 08:46:22;;;;;;;10.32;3.72;;;6.00;99.90;;;;;;5034858;28;20033;-87
2022/12/30 08:48:49;;;;;;;13.10;3.55;;;6.00;99.90;;;;;;5035103;28;20045;-85
2022/12/30 08:51:15;;;;;;;15.90;3.15;;;6.10;99.90;;;;;;5035229;28;20029;-84
2022/12/30 08:53:41;;;;;;;11.48;3.63;;;6.10;99.90;;;;;;5034325;28;20067;-85
2022/12/30 08:56:27;;;;;;;11.93;4.07;;;6.20;99.90;;;;;;5038167;28;20048;-86
2022/12/30 08:58:54;;;;;;;13.07;3.38;;;6.20;99.90;;;;;;5054644;28;20024;-86
2022/12/30 09:01:29;;;;;;;8.68;2.88;;;6.30;99.90;;;;;;5054533;28;20035;-85
2022/12/30 09:03:56;;;;;;;13.30;2.92;;;6.30;99.90;;;;;;5054097;28;20392;-87
2022/12/30 09:06:24;;;;;;;9.63;2.50;;;6.40;99.90;;;;;;5072074;28;20060;-86
2022/12/30 09:08:50;;;;;;;7.75;2.47;;;6.30;99.90;;;;;;5054293;28;20028;-85
2022/12/30 09:11:20;;;;;;;10.07;2.10;;;6.40;99.90;;;;;;5054380;28;20043;-87
2022/12/30 09:13:47;;;;;;;6.57;1.90;;;6.50;99.90;;;;;;5053860;28;20040;-85
2022/12/30 09:16:20;;;;;;;6.60;1.98;;;6.50;99.90;;;;;;5072978;28;20468;-85
2022/12/30 09:18:46;;;;;;;7.00;1.60;;;6.60;99.90;;;;;;5053974;28;20029;-86
2022/12/30 09:21:12;;;;;;;8.02;1.85;;;6.60;99.90;;;;;;5071758;28;20383;-84
2022/12/30 09:23:40;;;;;;;10.20;2.00;;;6.60;99.90;;;;;;5053346;28;20094;-85
2022/12/30 09:26:08;;;;;;;9.80;1.75;;;6.70;99.90;;;;;;5054329;28;20025;-85
2022/12/30 09:28:35;;;;;;;5.93;2.13;;;6.80;99.90;;;;;;5053991;28;20036;-85
2022/12/30 09:31:00;;;;;;;6.75;1.90;;;6.80;99.90;;;;;;5054107;28;20048;-85
2022/12/30 09:33:26;;;;;;;8.25;1.85;;;6.90;99.90;;;;;;5054430;28;20507;-85
2022/12/30 09:35:52;;;;;;;9.50;2.00;;;7.00;99.90;;;;;;5054257;28;20132;-85
2022/12/30 09:38:18;;;;;;;7.80;2.03;;;7.00;99.90;;;;;;5054242;28;20030;-85
2022/12/30 09:40:56;;;;;;;6.90;1.60;;;7.00;99.90;;;;;;5053952;28;20032;-85
2022/12/30 09:43:28;;;;;;;9.02;2.03;;;7.10;99.90;;;;;;5071466;28;20040;-85
2022/12/30 09:46:02;;;;;;;6.20;1.65;;;7.10;99.90;;;;;;5053692;28;20044;-85
2022/12/30 09:48:34;;;;;;;5.10;1.50;;;7.10;99.90;;;;;;5054461;28;20068;-85
2022/12/30 09:51:03;;;;;;;6.82;2.25;;;7.20;99.90;;;;;;5054272;28;20063;-84
2022/12/30 09:53:55;;;;;;;8.48;1.95;;;7.20;99.90;;;;;;5057715;28;20119;-85
2022/12/30 09:56:37;;;;;;;8.93;2.20;;;7.20;99.90;;;;;;5075801;28;20048;-86
2022/12/30 09:59:13;;;;;;;5.80;1.60;;;7.20;99.90;;;;;;5057968;28;20020;-85
2022/12/30 10:01:45;;;;;;;6.60;1.52;;;7.20;99.90;;;;;;5057996;28;20029;-85
2022/12/30 10:04:19;;;;;;;9.25;2.20;;;7.30;99.90;;;;;;5057698;28;20044;-84
2022/12/30 10:07:06;;;;;;;9.15;2.00;;;7.30;99.90;;;;;;5057306;28;20459;-85
2022/12/30 10:09:47;;;;;;;10.27;1.85;;;7.30;99.90;;;;;;5057855;28;20040;-87
2022/12/30 10:12:28;;;;;;;6.72;1.42;;;7.30;99.90;;;;;;5075552;28;20090;-87
2022/12/30 10:15:13;;;;;;;5.43;1.30;;;7.30;99.90;;;;;;5057422;28;20033;-85
2022/12/30 10:18:04;;;;;;;6.95;1.70;;;7.40;99.90;;;;;;5057478;28;20020;-85
2022/12/30 10:20:42;;;;;;;6.10;1.65;;;7.40;99.90;;;;;;5056996;28;20029;-85
2022/12/30 10:23:28;;;;;;;5.00;1.45;;;7.40;99.90;;;;;;5074752;28;20112;-86
2022/12/30 10:26:06;;;;;;;6.55;1.48;;;7.40;99.90;;;;;;5057054;28;20521;-85
2022/12/30 10:28:46;;;;;;;8.32;1.80;;;7.50;99.90;;;;;;5057198;28;20036;-85
2022/12/30 10:31:21;;;;;;;4.28;1.27;;;7.50;99.90;;;;;;5055221;28;20029;-85
2022/12/30 10:34:08;;;;;;;5.82;1.60;;;7.60;99.90;;;;;;5055978;28;20032;-86
2022/12/30 10:36:44;;;;;;;4.20;1.13;;;7.60;99.90;;;;;;5050785;28;20035;-85
2022/12/30 10:39:24;;;;;;;6.50;1.67;;;7.60;99.90;;;;;;5075434;28;20081;-85
2022/12/30 10:42:08;;;;;;;3.15;1.00;;;7.60;99.90;;;;;;5057353;28;20094;-86
2022/12/30 10:44:46;;;;;;;3.88;1.20;;;7.60;99.90;;;;;;5057052;28;20087;-85
2022/12/30 10:47:26;;;;;;;5.00;1.73;;;7.60;99.90;;;;;;5056835;28;20039;-87
2022/12/30 10:50:17;;;;;;;6.22;1.60;;;7.70;99.90;;;;;;5057374;28;20040;-85
2022/12/30 10:52:43;;;;;;;6.55;1.48;;;7.70;99.90;;;;;;5056908;28;20036;-85
2022/12/30 10:55:33;;;;;;;6.88;1.30;;;7.70;99.90;;;;;;5074472;28;20044;-85
2022/12/30 10:58:15;;;;;;;5.93;1.40;;;7.70;99.90;;;;;;5075271;28;20040;-85
2022/12/30 11:00:42;;;;;;;4.95;1.52;;;7.70;99.90;;;;;;5056876;28;20063;-86
2022/12/30 11:03:28;;;;;;;5.93;1.60;;;7.70;99.90;;;;;;5055895;28;20130;-85
2022/12/30 11:05:54;;;;;;;4.50;1.52;;;7.70;99.90;;;;;;5074515;28;20400;-86
2022/12/30 11:08:29;;;;;;;7.65;2.20;;;7.70;99.90;;;;;;5056601;28;20356;-86
2022/12/30 11:11:04;;;;;;;7.85;2.60;;;7.70;99.90;;;;;;5050437;28;20040;-84
2022/12/30 11:16:23;;;;;;;8.73;1.90;;;7.70;99.90;;;;;;5073846;28;20039;-84
2022/12/30 11:18:50;;;;;;;10.10;1.90;;;7.80;99.90;;;;;;5056699;28;20081;-85
2022/12/30 11:21:25;;;;;;;5.43;1.55;;;7.80;99.90;;;;;;5056950;28;20082;-84
2022/12/30 11:23:57;;;;;;;5.38;1.50;;;7.80;99.90;;;;;;5057091;28;20036;-85
2022/12/30 11:26:26;;;;;;;5.13;1.70;;;7.90;99.90;;;;;;5064552;28;20025;-85
2022/12/30 11:29:04;;;;;;;5.40;1.38;;;7.90;99.90;;;;;;5063061;28;20025;-83
2022/12/30 11:31:35;;;;;;;6.32;1.85;;;7.90;99.90;;;;;;5058816;28;20033;-83
2022/12/30 11:34:07;;;;;;;7.22;2.10;;;7.90;99.90;;;;;;5059969;28;20068;-84
2022/12/30 11:36:36;;;;;;;5.07;1.35;;;7.90;99.90;;;;;;5057130;28;20063;-84
2022/12/30 11:39:09;;;;;;;7.78;2.45;;;7.90;99.90;;;;;;5059366;28;20032;-84
2022/12/30 11:41:53;;;;;;;7.30;1.40;;;7.90;99.90;;;;;;5067322;28;20459;-84
2022/12/30 11:44:41;;;;;;;7.40;1.30;;;8.00;99.90;;;;;;5075790;28;20344;-85
2022/12/30 11:47:11;;;;;;;7.50;1.63;;;8.00;99.90;;;;;;5056769;28;20464;-84
2022/12/30 11:49:51;;;;;;;7.22;1.40;;;8.00;99.90;;;;;;5074392;28;20035;-84
2022/12/30 11:52:28;;;;;;;5.53;1.70;;;8.00;99.90;;;;;;5056603;28;20467;-86
2022/12/30 11:55:01;;;;;;;5.35;1.45;;;8.10;99.90;;;;;;5067422;28;20036;-84
2022/12/30 11:57:43;;;;;;;6.68;1.92;;;8.10;99.90;;;;;;5087203;28;20098;-84
2022/12/30 12:00:12;;;;;;;5.88;1.40;;;8.10;99.90;;;;;;5059521;28;20048;-84
2022/12/30 12:02:53;;;;;;;5.88;1.40;;;8.20;99.90;;;;;;5091281;28;20098;-86
2022/12/30 12:05:39;;;;;;;7.15;1.50;;;8.10;99.90;;;;;;5076167;28;20028;-84
2022/12/30 12:08:12;;;;;;;6.68;1.45;;;8.20;99.90;;;;;;5055710;28;20512;-84
2022/12/30 12:10:48;;;;;;;8.20;1.30;;;8.20;99.90;;;;;;5084025;28;20420;-84
2022/12/30 12:13:36;;;;;;;4.53;1.20;;;8.20;99.90;;;;;;5072535;28;20040;-85
2022/12/30 12:16:36;;;;;;;6.63;1.25;;;8.20;99.90;;;;;;5075790;28;20123;-84
2022/12/30 12:19:27;;;;;;;6.15;1.45;;;8.20;99.90;;;;;;5093821;28;20024;-87
2022/12/30 12:22:04;;;;;;;4.57;0.98;;;8.20;99.90;;;;;;5075512;28;20027;-85
2022/12/30 12:24:39;;;;;;;7.53;1.73;;;8.30;99.90;;;;;;5075340;28;20090;-86
2022/12/30 12:27:35;;;;;;;4.45;1.00;;;8.30;99.90;;;;;;5075813;28;20035;-90
2022/12/30 12:30:02;;;;;;;5.35;1.48;;;8.30;99.90;;;;;;5053262;28;20503;-84
2022/12/30 12:33:04;;;;;;;4.68;1.30;;;8.30;99.90;;;;;;5094001;28;20036;-85
2022/12/30 12:36:08;;;;;;;3.65;0.82;;;8.40;99.90;;;;;;5074342;28;20032;-84
2022/12/30 12:38:59;;;;;;;6.05;1.40;;;8.40;99.90;;;;;;5069478;28;20097;-84
2022/12/30 12:41:50;;;;;;;5.45;1.40;;;8.40;99.90;;;;;;5074876;28;20032;-84
2022/12/30 12:44:43;;;;;;;10.57;1.38;;;8.40;99.90;;;;;;5075720;28;20043;-84
2022/12/30 12:47:36;;;;;;;6.55;1.30;;;8.40;99.90;;;;;;5093611;28;20024;-84
2022/12/30 12:50:36;;;;;;;5.43;1.80;;;8.30;99.90;;;;;;5057126;28;20128;-86
2022/12/30 12:53:08;;;;;;;6.22;1.20;;;8.20;99.90;;;;;;5089307;28;20043;-85
2022/12/30 12:56:11;;;;;;;5.43;1.35;;;8.10;99.90;;;;;;5075184;28;20024;-84
2022/12/30 12:58:54;;;;;;;5.75;1.50;;;8.00;99.90;;;;;;5054213;28;20051;-87
2022/12/30 13:01:55;;;;;;;6.78;1.80;;;7.90;99.90;;;;;;5049693;28;20035;-85
2022/12/30 13:05:07;;;;;;;7.05;1.63;;;7.90;99.90;;;;;;5049597;28;20040;-85
2022/12/30 13:07:58;;;;;;;8.55;1.48;;;7.90;99.90;;;;;;5029131;28;20028;-87
2022/12/30 13:11:03;;;;;;;6.70;1.50;;;7.80;99.90;;;;;;5054638;28;20036;-85
2022/12/30 13:13:40;;;;;;;7.38;1.90;;;7.80;99.90;;;;;;5019389;28;20060;-86
2022/12/30 13:16:13;;;;;;;7.60;1.88;;;7.70;99.90;;;;;;5072397;28;20051;-87
2022/12/30 13:18:42;;;;;;;12.00;2.00;;;7.60;99.90;;;;;;5054747;28;20547;-86
2022/12/30 13:24:06;;;;;;;4.07;1.30;;;7.50;99.90;;;;;;5062226;28;20044;-90
2022/12/30 13:26:35;;;;;;;4.70;1.13;;;7.50;99.90;;;;;;5054372;28;20029;-86
2022/12/30 13:29:13;;;;;;;8.98;1.63;;;7.50;99.90;;;;;;5043712;28;20029;-87
2022/12/30 13:31:47;;;;;;;7.07;1.33;;;7.50;99.90;;;;;;5068972;28;20104;-89
2022/12/30 13:34:53;;;;;;;7.70;1.70;;;7.50;99.90;;;;;;5057771;28;20063;-88
2022/12/30 13:37:46;;;;;;;10.25;1.75;;;7.60;99.90;;;;;;5032328;28;20028;-87
2022/12/30 13:40:19;;;;;;;12.25;2.35;;;7.50;99.90;;;;;;5059998;28;20037;-89
2022/12/30 13:42:51;;;;;;;;;;;7.50;99.90;;;;;;5058771;28;20091;-87
2022/12/30 13:45:32;;;;;;;7.05;1.40;;;7.50;99.90;;;;;;5066729;28;19966;-88
2022/12/30 13:48:12;;;;;;;6.88;1.63;;;7.50;99.90;;;;;;5053844;28;20028;-87
2022/12/30 13:50:47;;;;;;;9.52;1.88;;;7.40;99.90;;;;;;5053991;28;20379;-88
2022/12/30 13:53:33;;;;;;;8.20;1.80;;;7.50;99.90;;;;;;5047854;28;20031;-89
2022/12/30 13:55:59;;;;;;;5.65;1.65;;;7.50;99.90;;;;;;5044371;28;20405;-88
2022/12/30 13:58:36;;;;;;;5.47;1.50;;;7.50;99.90;;;;;;5066982;28;20493;-88
2022/12/30 14:01:28;;;;;;;4.93;1.30;;;7.40;99.90;;;;;;5070043;28;20069;-86
2022/12/30 14:04:09;;;;;;;5.43;1.40;;;7.50;99.90;;;;;;5061417;28;20036;-87
2022/12/30 14:06:46;;;;;;;5.95;1.42;;;7.50;99.90;;;;;;5074208;28;20499;-86
2022/12/30 14:09:23;;;;;;;4.95;1.60;;;7.50;99.90;;;;;;5072677;28;20472;-88
2022/12/30 14:12:25;;;;;;;6.22;1.63;;;7.50;99.90;;;;;;5091140;28;20094;-86
2022/12/30 14:14:52;;;;;;;9.40;2.17;;;7.50;99.90;;;;;;5090220;28;20119;-87
2022/12/30 14:17:41;;;;;;;7.55;1.58;;;7.50;99.90;;;;;;5068784;28;20484;-87
2022/12/30 14:20:26;;;;;;;6.80;1.73;;;7.60;99.90;;;;;;5045507;28;20079;-87
2022/12/30 14:23:26;;;;;;;11.15;1.90;;;7.60;99.90;;;;;;5073308;28;20082;-85
2022/12/30 14:25:53;;;;;;;10.15;1.98;;;7.60;99.90;;;;;;5059234;28;20082;-87
2022/12/30 14:28:26;;;;;;;7.85;1.70;;;7.60;99.90;;;;;;5077144;28;20052;-89
2022/12/30 14:30:55;;;;;;;6.07;1.55;;;7.60;99.90;;;;;;5056473;28;20039;-88
2022/12/30 14:33:43;;;;;;;6.53;1.80;;;7.60;99.90;;;;;;5073967;28;20040;-87
2022/12/30 14:36:24;;;;;;;6.78;1.95;;;7.70;99.90;;;;;;5091931;28;20051;-88
2022/12/30 14:39:04;;;;;;;6.22;1.77;;;7.70;99.90;;;;;;5075239;28;20519;-87